createdAt,value
2022-08-03T00:01:45.723Z,21.00
2022-08-03T00:04:13.968Z,20.99
2022-08-03T00:06:42.005Z,20.98
2022-08-03T00:09:10.417Z,20.98
2022-08-03T00:11:38.591Z,20.91
2022-08-03T00:14:08.854Z,20.91
2022-08-03T00:16:38.558Z,20.88
2022-08-03T00:19:06.624Z,20.87
2022-08-03T00:21:34.661Z,20.87
2022-08-03T00:24:02.766Z,20.74
2022-08-03T00:26:31.779Z,20.63
2022-08-03T00:28:59.910Z,20.62
2022-08-03T00:31:51.444Z,20.58
2022-08-03T00:34:17.380Z,20.66
2022-08-03T00:36:57.922Z,20.55
2022-08-03T00:39:25.939Z,20.54
2022-08-03T00:41:54.140Z,20.48
2022-08-03T00:44:22.166Z,20.49
2022-08-03T00:46:50.288Z,20.41
2022-08-03T00:49:19.769Z,20.40
2022-08-03T00:51:48.867Z,20.36
2022-08-03T00:54:17.243Z,20.31
2022-08-03T00:57:00.066Z,20.28
2022-08-03T00:59:28.803Z,20.27
2022-08-03T01:01:57.196Z,20.17
2022-08-03T01:04:26.762Z,20.17
2022-08-03T01:07:04.960Z,20.08
2022-08-03T01:09:48.642Z,20.08
2022-08-03T01:12:23.592Z,20.05
2022-08-03T01:14:59.737Z,20.00
2022-08-03T01:17:35.564Z,20.01
2022-08-03T01:20:08.564Z,19.89
2022-08-03T01:22:50.751Z,19.97
2022-08-03T01:25:33.958Z,19.90
2022-08-03T01:28:21.159Z,19.79
2022-08-03T01:30:53.873Z,19.85
2022-08-03T01:33:23.798Z,19.84
2022-08-03T01:36:00.169Z,19.74
2022-08-03T01:38:32.398Z,19.70
2022-08-03T01:41:05.755Z,19.64
2022-08-03T01:44:27.652Z,19.70
2022-08-03T01:46:26.211Z,19.69
2022-08-03T01:48:56.334Z,19.67
2022-08-03T01:51:24.634Z,19.63
2022-08-03T01:54:14.691Z,19.66
2022-08-03T01:56:46.569Z,19.56
2022-08-03T01:59:17.680Z,19.58
2022-08-03T02:02:27.795Z,19.52
2022-08-03T02:04:39.687Z,19.49
2022-08-03T02:07:09.066Z,19.51
2022-08-03T02:09:40.044Z,19.46
2022-08-03T02:12:10.377Z,19.37
2022-08-03T02:14:40.487Z,19.34
2022-08-03T02:17:11.587Z,19.44
2022-08-03T02:19:40.905Z,19.45
2022-08-03T02:22:13.212Z,19.38
2022-08-03T02:24:41.706Z,19.39
2022-08-03T02:27:21.250Z,19.32
2022-08-03T02:29:56.215Z,19.32
2022-08-03T02:32:31.673Z,19.27
2022-08-03T02:35:01.785Z,19.23
2022-08-03T02:37:35.446Z,19.21
2022-08-03T02:40:07.241Z,19.22
2022-08-03T02:42:38.053Z,19.27
2022-08-03T02:45:12.482Z,19.16
2022-08-03T02:47:54.035Z,19.17
2022-08-03T02:50:25.576Z,19.09
2022-08-03T02:52:56.188Z,18.99
2022-08-03T02:55:27.403Z,18.95
2022-08-03T02:57:56.890Z,18.97
2022-08-03T03:00:30.842Z,19.09
2022-08-03T03:03:04.055Z,19.01
2022-08-03T03:05:54.547Z,18.97
2022-08-03T03:08:26.885Z,18.95
2022-08-03T03:10:59.218Z,18.89
2022-08-03T03:13:29.346Z,18.83
2022-08-03T03:16:00.762Z,18.86
2022-08-03T03:18:32.134Z,18.76
2022-08-03T03:21:02.635Z,18.79
2022-08-03T03:23:31.892Z,18.74
2022-08-03T03:26:02.465Z,18.74
2022-08-03T03:28:31.728Z,18.74
2022-08-03T03:31:00.451Z,18.80
2022-08-03T03:33:28.821Z,18.73
2022-08-03T03:35:59.757Z,18.74
2022-08-03T03:38:27.999Z,18.69
2022-08-03T03:40:56.795Z,18.61
2022-08-03T03:43:25.432Z,18.58
2022-08-03T03:45:54.029Z,18.53
2022-08-03T03:48:22.312Z,18.55
2022-08-03T03:50:51.552Z,18.54
2022-08-03T03:53:21.060Z,18.59
2022-08-03T03:56:01.218Z,18.57
2022-08-03T03:58:32.198Z,18.49
2022-08-03T04:01:00.667Z,18.45
2022-08-03T04:03:29.136Z,18.45
2022-08-03T04:06:15.339Z,18.38
2022-08-03T04:09:02.490Z,18.37
2022-08-03T04:11:37.418Z,18.39
2022-08-03T04:14:10.208Z,18.45
2022-08-03T04:16:43.607Z,18.41
2022-08-03T04:19:22.610Z,18.43
2022-08-03T04:21:57.058Z,18.41
2022-08-03T04:24:32.051Z,18.43
2022-08-03T04:27:01.986Z,18.44
2022-08-03T04:29:34.363Z,18.42
2022-08-03T04:32:03.303Z,18.47
2022-08-03T04:34:32.048Z,18.43
2022-08-03T04:37:03.051Z,18.44
2022-08-03T04:39:34.010Z,18.49
2022-08-03T04:42:08.752Z,18.50
2022-08-03T04:44:39.049Z,18.54
2022-08-03T04:47:07.283Z,18.62
2022-08-03T04:49:37.482Z,18.61
2022-08-03T04:52:06.690Z,18.62
2022-08-03T04:54:42.818Z,18.63
2022-08-03T04:57:23.305Z,18.65
2022-08-03T05:00:01.021Z,18.68
2022-08-03T05:02:31.986Z,18.74
2022-08-03T05:05:00.263Z,18.79
2022-08-03T05:07:34.076Z,18.89
2022-08-03T05:10:14.833Z,18.86
2022-08-03T05:12:44.404Z,18.89
2022-08-03T05:15:12.996Z,18.91
2022-08-03T05:17:41.266Z,18.95
2022-08-03T05:20:10.594Z,18.97
2022-08-03T05:22:38.639Z,19.00
2022-08-03T05:25:08.855Z,19.04
2022-08-03T05:27:36.884Z,19.08
2022-08-03T05:30:31.110Z,19.15
2022-08-03T05:32:54.508Z,19.17
2022-08-03T05:36:01.934Z,19.25
2022-08-03T05:38:13.422Z,19.30
2022-08-03T05:40:57.290Z,19.39
2022-08-03T05:43:26.120Z,19.48
2022-08-03T05:46:11.596Z,19.55
2022-08-03T05:48:40.860Z,19.63
2022-08-03T05:51:11.673Z,19.72
2022-08-03T05:53:40.474Z,19.82
2022-08-03T05:56:13.758Z,19.90
2022-08-03T05:58:44.515Z,20.00
2022-08-03T06:01:12.678Z,20.08
2022-08-03T06:03:40.829Z,20.18
2022-08-03T06:06:09.054Z,20.27
2022-08-03T06:08:37.204Z,20.36
2022-08-03T06:11:05.225Z,20.48
2022-08-03T06:13:35.007Z,20.59
2022-08-03T06:16:03.338Z,20.74
2022-08-03T06:18:31.313Z,20.87
2022-08-03T06:21:14.891Z,21.00
2022-08-03T06:23:53.179Z,21.15
2022-08-03T06:26:23.143Z,21.28
2022-08-03T06:28:54.260Z,21.38
2022-08-03T06:31:24.155Z,21.48
2022-08-03T06:34:32.154Z,21.58
2022-08-03T06:36:40.810Z,21.70
2022-08-03T06:39:09.137Z,21.82
2022-08-03T06:41:38.127Z,21.90
2022-08-03T06:44:14.077Z,22.01
2022-08-03T06:46:43.315Z,22.08
2022-08-03T06:49:11.476Z,22.22
2022-08-03T06:52:06.089Z,22.33
2022-08-03T06:54:32.580Z,22.49
2022-08-03T06:57:01.167Z,22.51
2022-08-03T07:00:09.680Z,22.59
2022-08-03T07:02:20.403Z,22.66
2022-08-03T07:04:48.929Z,22.80
2022-08-03T07:07:17.448Z,22.95
2022-08-03T07:09:56.410Z,23.06
2022-08-03T07:12:26.291Z,23.24
2022-08-03T07:15:00.261Z,23.36
2022-08-03T07:17:29.070Z,23.38
2022-08-03T07:19:57.126Z,23.58
2022-08-03T07:22:25.420Z,23.67
2022-08-03T07:27:21.417Z,23.90
2022-08-03T07:29:49.505Z,24.08
2022-08-03T07:32:19.336Z,24.20
2022-08-03T07:34:47.750Z,24.20
2022-08-03T07:37:15.778Z,24.26
2022-08-03T07:39:43.910Z,24.39
2022-08-03T07:42:12.083Z,24.64
2022-08-03T07:44:42.187Z,24.75
2022-08-03T07:47:10.290Z,24.90
2022-08-03T07:49:51.848Z,25.10
2022-08-03T07:52:37.589Z,25.28
2022-08-03T07:55:07.433Z,25.54
2022-08-03T07:57:36.475Z,25.56
2022-08-03T08:00:07.505Z,25.76
2022-08-03T08:02:35.724Z,25.87
2022-08-03T08:05:06.170Z,26.01
2022-08-03T08:07:34.353Z,26.22
2022-08-03T08:10:02.402Z,26.20
2022-08-03T08:12:30.411Z,26.29
2022-08-03T08:14:58.522Z,26.42
2022-08-03T08:17:26.584Z,26.58
2022-08-03T08:19:54.766Z,26.47
2022-08-03T08:22:30.494Z,26.49
2022-08-03T08:25:01.279Z,26.53
2022-08-03T08:28:29.547Z,26.80
2022-08-03T08:30:20.247Z,26.96
2022-08-03T08:32:48.847Z,26.78
2022-08-03T08:35:18.002Z,27.18
2022-08-03T08:37:51.175Z,27.32
2022-08-03T08:40:22.785Z,27.45
2022-08-03T08:42:58.450Z,27.59
2022-08-03T08:45:27.533Z,27.85
2022-08-03T08:48:01.895Z,28.02
2022-08-03T08:50:31.992Z,28.15
2022-08-03T08:53:04.744Z,28.39
2022-08-03T08:55:56.952Z,28.65
2022-08-03T08:58:24.312Z,28.78
2022-08-03T09:00:52.776Z,28.91
2022-08-03T09:03:29.154Z,28.99
2022-08-03T09:06:01.260Z,29.01
2022-08-03T09:08:32.955Z,29.29
2022-08-03T09:11:01.317Z,29.42
2022-08-03T09:13:30.605Z,29.44
2022-08-03T09:16:15.363Z,29.62
2022-08-03T09:18:44.376Z,29.65
2022-08-03T09:21:31.855Z,29.93
2022-08-03T09:24:07.139Z,29.60
2022-08-03T09:26:38.807Z,29.81
2022-08-03T09:29:13.891Z,29.65
2022-08-03T09:31:45.081Z,29.83
2022-08-03T09:34:14.868Z,29.88
2022-08-03T09:36:44.779Z,29.88
2022-08-03T09:39:16.022Z,29.98
2022-08-03T09:41:45.522Z,30.11
2022-08-03T09:44:24.640Z,30.40
2022-08-03T09:46:57.258Z,30.45
2022-08-03T09:49:26.177Z,30.72
2022-08-03T09:52:31.296Z,30.94
2022-08-03T09:54:44.689Z,31.07
2022-08-03T09:57:23.971Z,31.01
2022-08-03T10:00:01.869Z,31.11
2022-08-03T10:02:33.449Z,31.40
2022-08-03T10:05:01.484Z,31.53
2022-08-03T10:07:29.492Z,31.59
2022-08-03T10:10:31.872Z,31.74
2022-08-03T10:12:49.295Z,32.13
2022-08-03T10:16:22.327Z,32.28
2022-08-03T10:18:06.235Z,32.63
2022-08-03T10:20:41.246Z,32.94
2022-08-03T10:23:09.982Z,33.23
2022-08-03T10:25:42.154Z,32.76
2022-08-03T10:28:16.161Z,33.15
2022-08-03T10:30:49.040Z,33.41
2022-08-03T10:33:51.082Z,33.49
2022-08-03T10:36:10.216Z,33.46
2022-08-03T10:38:41.581Z,33.64
2022-08-03T10:41:12.161Z,33.33
2022-08-03T10:43:49.039Z,33.64
2022-08-03T10:46:20.691Z,33.92
2022-08-03T10:48:51.733Z,34.30
2022-08-03T10:51:21.229Z,34.65
2022-08-03T10:53:54.530Z,34.53
2022-08-03T10:57:14.347Z,34.56
2022-08-03T11:00:00.548Z,34.86
2022-08-03T11:03:11.201Z,35.01
2022-08-03T11:05:41.968Z,35.14
2022-08-03T11:08:32.765Z,35.28
2022-08-03T11:11:23.610Z,35.62
2022-08-03T11:14:02.845Z,35.63
2022-08-03T11:16:32.533Z,35.76
2022-08-03T11:19:02.990Z,35.94
2022-08-03T11:22:00.011Z,35.63
2022-08-03T11:25:01.986Z,36.03
2022-08-03T11:27:31.917Z,36.22
2022-08-03T11:30:04.979Z,36.15
2022-08-03T11:33:01.661Z,36.03
2022-08-03T11:35:31.879Z,35.77
2022-08-03T11:38:08.251Z,36.05
2022-08-03T11:40:38.792Z,36.37
2022-08-03T11:43:08.542Z,36.42
2022-08-03T11:45:39.211Z,36.67
2022-08-03T11:48:17.911Z,36.73
2022-08-03T11:50:46.500Z,36.24
2022-08-03T11:53:19.622Z,36.03
2022-08-03T11:55:50.170Z,36.77
2022-08-03T11:59:11.043Z,37.02
2022-08-03T12:01:11.452Z,37.23
2022-08-03T12:03:39.580Z,37.39
2022-08-03T12:06:11.963Z,37.50
2022-08-03T12:08:40.689Z,37.47
2022-08-03T12:11:11.435Z,37.41
2022-08-03T12:14:26.825Z,37.59
2022-08-03T12:16:31.100Z,37.88
2022-08-03T12:19:00.549Z,37.90
2022-08-03T12:21:29.115Z,37.80
2022-08-03T12:24:01.223Z,38.09
2022-08-03T12:26:29.294Z,37.73
2022-08-03T12:28:57.533Z,38.40
2022-08-03T12:31:25.924Z,37.78
2022-08-03T12:34:02.886Z,37.57
2022-08-03T12:36:32.418Z,38.39
2022-08-03T12:39:02.485Z,38.59
2022-08-03T12:41:34.174Z,38.63
2022-08-03T12:44:04.202Z,38.57
2022-08-03T12:46:34.188Z,37.53
2022-08-03T12:49:08.684Z,37.96
2022-08-03T12:51:38.645Z,37.78
2022-08-03T12:54:07.320Z,37.92
2022-08-03T12:56:35.784Z,38.30
2022-08-03T12:59:32.353Z,38.67
2022-08-03T13:02:09.370Z,38.02
2022-08-03T13:04:39.291Z,38.54
2022-08-03T13:07:14.131Z,39.01
2022-08-03T13:09:44.246Z,39.07
2022-08-03T13:12:14.173Z,38.70
2022-08-03T13:14:42.847Z,38.40
2022-08-03T13:17:11.288Z,38.66
2022-08-03T13:19:41.432Z,38.99
2022-08-03T13:22:13.579Z,38.82
2022-08-03T13:24:42.052Z,38.64
2022-08-03T13:28:11.075Z,38.68
2022-08-03T13:29:59.100Z,38.19
2022-08-03T13:32:27.207Z,38.66
2022-08-03T13:34:56.613Z,38.89
2022-08-03T13:37:24.975Z,39.00
2022-08-03T13:39:58.932Z,39.17
2022-08-03T13:42:30.000Z,39.27
2022-08-03T13:44:58.392Z,38.87
2022-08-03T13:47:26.553Z,38.95
2022-08-03T13:50:00.072Z,39.24
2022-08-03T13:52:35.270Z,39.70
2022-08-03T13:55:05.052Z,39.48
2022-08-03T13:58:02.507Z,38.94
2022-08-03T14:00:28.190Z,39.07
2022-08-03T14:03:05.069Z,38.29
2022-08-03T14:05:38.313Z,38.39
2022-08-03T14:08:07.826Z,38.63
2022-08-03T14:10:38.595Z,38.82
2022-08-03T14:13:07.321Z,38.93
2022-08-03T14:15:38.172Z,38.88
2022-08-03T14:18:11.946Z,38.44
2022-08-03T14:20:50.236Z,38.19
2022-08-03T14:23:22.909Z,38.84
2022-08-03T14:25:52.288Z,39.00
2022-08-03T14:28:23.383Z,38.79
2022-08-03T14:30:52.450Z,38.58
2022-08-03T14:33:20.523Z,38.68
2022-08-03T14:35:50.145Z,38.89
2022-08-03T14:38:18.888Z,38.73
2022-08-03T14:40:47.330Z,38.20
2022-08-03T14:43:16.531Z,37.79
2022-08-03T14:45:45.189Z,38.04
2022-08-03T14:49:02.262Z,38.43
2022-08-03T14:51:02.883Z,37.32
2022-08-03T14:53:30.892Z,37.49
2022-08-03T14:55:58.972Z,37.70
2022-08-03T14:58:27.182Z,37.66
2022-08-03T15:00:56.717Z,36.88
2022-08-03T15:03:26.005Z,37.42
2022-08-03T15:05:55.571Z,36.66
2022-08-03T15:08:26.875Z,36.93
2022-08-03T15:10:55.591Z,36.82
2022-08-03T15:13:25.363Z,37.08
2022-08-03T15:15:53.467Z,36.97
2022-08-03T15:18:21.464Z,36.51
2022-08-03T15:20:50.862Z,36.84
2022-08-03T15:23:19.415Z,37.01
2022-08-03T15:26:04.210Z,37.02
2022-08-03T15:28:37.680Z,36.50
2022-08-03T15:31:06.514Z,36.19
2022-08-03T15:33:35.293Z,36.06
2022-08-03T15:36:04.029Z,35.74
2022-08-03T15:38:32.374Z,35.47
2022-08-03T15:41:01.733Z,36.01
2022-08-03T15:43:29.814Z,35.76
2022-08-03T15:46:27.793Z,35.73
2022-08-03T15:48:46.786Z,35.58
2022-08-03T15:51:15.184Z,35.64
2022-08-03T15:53:43.283Z,35.84
2022-08-03T15:56:18.132Z,35.61
2022-08-03T15:59:04.578Z,35.48
2022-08-03T16:01:35.639Z,35.34
2022-08-03T16:04:03.742Z,35.49
2022-08-03T16:06:35.085Z,35.35
2022-08-03T16:09:03.954Z,35.39
2022-08-03T16:11:33.488Z,34.93
2022-08-03T16:14:11.941Z,34.56
2022-08-03T16:16:49.255Z,34.67
2022-08-03T16:19:17.458Z,34.60
2022-08-03T16:21:48.849Z,34.54
2022-08-03T16:24:27.525Z,34.34
2022-08-03T16:26:57.914Z,34.16
2022-08-03T16:29:28.642Z,34.17
2022-08-03T16:31:56.575Z,34.25
2022-08-03T16:34:24.834Z,34.46
2022-08-03T16:36:54.661Z,34.48
2022-08-03T16:39:22.847Z,34.42
2022-08-03T16:41:54.360Z,34.28
2022-08-03T16:44:32.133Z,34.39
2022-08-03T16:47:00.737Z,34.23
2022-08-03T16:49:53.763Z,34.09
2022-08-03T16:52:17.909Z,33.42
2022-08-03T16:54:53.054Z,33.24
2022-08-03T16:57:58.189Z,33.60
2022-08-03T17:00:34.101Z,33.72
2022-08-03T17:03:04.542Z,33.73
2022-08-03T17:05:47.077Z,33.54
2022-08-03T17:08:15.831Z,33.59
2022-08-03T17:10:45.449Z,33.53
2022-08-03T17:13:20.738Z,33.31
2022-08-03T17:15:58.203Z,33.30
2022-08-03T17:18:33.150Z,33.25
2022-08-03T17:21:05.088Z,33.14
2022-08-03T17:23:42.254Z,32.71
2022-08-03T17:26:21.212Z,32.71
2022-08-03T17:28:57.395Z,32.88
2022-08-03T17:31:31.843Z,32.63
2022-08-03T17:34:04.471Z,32.73
2022-08-03T17:37:02.227Z,32.74
2022-08-03T17:39:36.162Z,32.71
2022-08-03T17:42:30.323Z,32.55
2022-08-03T17:45:01.924Z,32.63
2022-08-03T17:47:42.615Z,32.46
2022-08-03T17:50:24.047Z,32.51
2022-08-03T17:53:07.376Z,32.48
2022-08-03T17:55:55.778Z,32.08
2022-08-03T17:58:39.716Z,32.00
2022-08-03T18:02:06.122Z,32.01
2022-08-03T18:04:29.808Z,31.81
2022-08-03T18:07:00.521Z,31.96
2022-08-03T18:10:03.864Z,31.95
2022-08-03T18:12:38.414Z,31.81
2022-08-03T18:15:08.690Z,31.81
2022-08-03T18:18:02.186Z,31.73
2022-08-03T18:20:41.066Z,31.73
2022-08-03T18:23:24.801Z,31.58
2022-08-03T18:26:01.053Z,31.53
2022-08-03T18:28:29.666Z,31.38
2022-08-03T18:30:58.612Z,31.21
2022-08-03T18:34:19.155Z,31.09
2022-08-03T18:36:29.437Z,30.94
2022-08-03T18:39:01.793Z,30.87
2022-08-03T18:41:33.594Z,30.82
2022-08-03T18:44:09.594Z,30.56
2022-08-03T18:47:07.064Z,30.45
2022-08-03T18:49:43.206Z,30.45
2022-08-03T18:52:17.953Z,30.45
2022-08-03T18:55:01.078Z,30.47
2022-08-03T18:57:40.809Z,30.34
2022-08-03T19:00:14.118Z,30.26
2022-08-03T19:02:49.225Z,30.21
2022-08-03T19:05:20.426Z,30.06
2022-08-03T19:10:57.942Z,29.72
2022-08-03T19:13:40.413Z,29.62
2022-08-03T19:16:18.780Z,29.56
2022-08-03T19:18:49.942Z,29.42
2022-08-03T19:21:18.555Z,29.40
2022-08-03T19:23:49.867Z,29.30
2022-08-03T19:26:30.963Z,29.16
2022-08-03T19:29:00.095Z,29.06
2022-08-03T19:31:30.745Z,28.94
2022-08-03T19:34:00.342Z,28.98
2022-08-03T19:36:31.401Z,28.81
2022-08-03T19:39:03.267Z,28.73
2022-08-03T19:41:42.450Z,28.59
2022-08-03T19:44:12.507Z,28.54
2022-08-03T19:46:52.841Z,28.43
2022-08-03T19:49:24.312Z,28.28
2022-08-03T19:52:15.218Z,28.09
2022-08-03T19:54:53.672Z,28.09
2022-08-03T19:57:25.143Z,28.04
2022-08-03T19:59:54.892Z,27.98
2022-08-03T20:02:26.767Z,27.90
2022-08-03T20:04:57.349Z,27.81
2022-08-03T20:07:26.350Z,27.67
2022-08-03T20:09:57.025Z,27.61
2022-08-03T20:12:27.670Z,27.52
2022-08-03T20:14:58.510Z,27.54
2022-08-03T20:17:31.227Z,27.40
2022-08-03T20:20:15.604Z,27.32
2022-08-03T20:22:51.367Z,27.23
2022-08-03T20:28:26.836Z,27.11
2022-08-03T20:30:56.054Z,27.00
2022-08-03T20:33:27.582Z,26.97
2022-08-03T20:36:03.460Z,26.85
2022-08-03T20:38:31.634Z,26.78
2022-08-03T20:41:01.141Z,26.70
2022-08-03T20:43:29.256Z,26.63
2022-08-03T20:46:00.810Z,26.57
2022-08-03T20:48:48.715Z,26.46
2022-08-03T20:51:20.202Z,26.39
2022-08-03T20:53:57.032Z,26.29
2022-08-03T20:56:32.288Z,26.24
2022-08-03T20:59:03.039Z,26.07
2022-08-03T21:01:36.152Z,26.06
2022-08-03T21:04:06.780Z,25.99
2022-08-03T21:06:39.702Z,25.95
2022-08-03T21:09:09.914Z,25.91
2022-08-03T21:11:45.504Z,25.81
2022-08-03T21:13:01.365Z,30.05
2022-08-03T21:13:13.426Z,27.14
2022-08-03T21:14:19.950Z,25.79
2022-08-03T21:16:51.625Z,25.72
2022-08-03T21:19:22.395Z,25.64
2022-08-03T21:21:51.017Z,25.63
2022-08-03T21:24:22.755Z,25.56
2022-08-03T21:26:54.997Z,25.52
2022-08-03T21:29:24.604Z,25.45
2022-08-03T21:31:52.797Z,25.42
2022-08-03T21:34:21.816Z,25.34
2022-08-03T21:36:50.386Z,25.23
2022-08-03T21:39:18.823Z,25.20
2022-08-03T21:41:47.215Z,25.20
2022-08-03T21:44:25.263Z,25.10
2022-08-03T21:47:00.022Z,25.03
2022-08-03T21:50:05.846Z,24.98
2022-08-03T21:52:22.665Z,24.99
2022-08-03T21:54:55.258Z,24.89
2022-08-03T21:57:25.125Z,24.85
2022-08-03T21:59:57.894Z,24.77
2022-08-03T22:02:31.309Z,24.69
2022-08-03T22:05:00.592Z,24.67
2022-08-03T22:07:34.524Z,24.59
2022-08-03T22:10:04.220Z,24.50
2022-08-03T22:12:33.391Z,24.47
2022-08-03T22:15:05.483Z,24.50
2022-08-03T22:17:56.084Z,24.46
2022-08-03T22:20:23.362Z,24.37
2022-08-03T22:22:56.637Z,24.38
2022-08-03T22:25:29.088Z,24.34
2022-08-03T22:27:59.681Z,24.25
2022-08-03T22:30:29.610Z,24.21
2022-08-03T22:32:58.970Z,24.24
2022-08-03T22:35:28.540Z,24.21
2022-08-03T22:37:59.486Z,24.18
2022-08-03T22:40:28.810Z,24.08
2022-08-03T22:42:58.260Z,24.12
2022-08-03T22:46:06.817Z,24.06
2022-08-03T22:48:18.028Z,24.04
2022-08-03T22:50:47.530Z,24.01
2022-08-03T22:53:20.264Z,23.96
2022-08-03T22:55:49.441Z,23.98
2022-08-03T22:58:17.874Z,23.86
2022-08-03T23:00:53.761Z,23.86
2022-08-03T23:03:58.994Z,23.84
2022-08-03T23:06:17.309Z,23.78
2022-08-03T23:08:47.293Z,23.66
2022-08-03T23:11:17.991Z,23.72
2022-08-03T23:13:47.777Z,23.67
2022-08-03T23:16:27.944Z,23.69
2022-08-03T23:19:00.276Z,23.67
2022-08-03T23:21:53.733Z,23.65
2022-08-03T23:24:30.496Z,23.60
2022-08-03T23:26:59.375Z,23.58
2022-08-03T23:29:27.745Z,23.54
2022-08-03T23:31:57.376Z,23.47
2022-08-03T23:34:46.135Z,23.34
2022-08-03T23:37:15.507Z,23.34
2022-08-03T23:39:47.200Z,23.33
2022-08-03T23:42:18.172Z,23.36
2022-08-03T23:44:47.076Z,23.33
2022-08-03T23:47:15.407Z,23.25
2022-08-03T23:49:45.612Z,23.22
2022-08-03T23:52:19.928Z,23.22
2022-08-03T23:55:05.283Z,23.16
2022-08-03T23:57:44.325Z,23.15
